Terminal Aerodrome Forecast
Issued by NWS

Home | Current Version | Previous Version | Text Only | Print | Product List | Glossary On
Versions: 1 2 3 4 5 6 7 8 9
000
FTUS45 KFGZ 291100
TAFGCN
TAF
KGCN 291129Z 2912/3012 VRB03KT P6SM FEW250
     FM291800 24010G20KT P6SM FEW250
     FM300100 VRB04KT P6SM BKN250=

USA.gov is the U.S. government's official web portal to all federal, state and local government web resources and services.